Naha Airport
ROAH : now visible

Airfield :











YOU CAN JOIN US ON...

 
LOGIN :

Register | Disclaimer

   EN    FR    IT 

 









Legend :    VFR   Marginal VFR   IFR   Intensive IFR   Very Intensive IFR
Visi :
Ceiling :
>= 8 km
>= 3000ft
5 to 8 km
1000 to 3000 ft
1500m to 5 km
500 to 1000 ft
800 to 1500m
200 to 500 ft
< 800m
< 200 ft
Symbols :   Thunderstorms  Fog  Heavy snow  Heavy precipitations  Wind > 20 kt







- Airport Elevation : 12 ft
- IATA code : OKA


ROAH - Naha

CURRENT METAR :
  • 161300Z 04011KT 9999 -SHRA FEW015 BKN020 18/15 Q1019

EXPIRED METARs :
  • 161230Z 03013KT 9999 -SHRA FEW015 BKN020 19/15 Q1019 RMK 2CU015 6CU020 A3010
  • 161200Z 02014KT 9999 FEW012 BKN020 19/15 Q1019 RMK 2CU012 6CU020 A3010
  • 161130Z 02014KT 9999 -RA FEW010 BKN018 19/15 Q1019 RMK 2CU010 6CU018 A3009
  • 161100Z 02015KT 9999 -RA SCT013 BKN023 19/15 Q1018 RMK 3CU013 6CU023 A3009
  • 161030Z 01013KT 9999 SCT017 BKN025 19/15 Q1018 RMK 3CU017 6CU025 A3008

TAF TAF ROAH
Valid from the 16 at 12:00 until the 17 at 18:00 UTC


161107Z 1612/1718 02012KT 9999 FEW015 BKN025
RJJJ FIR / Asia



MET'MAP, your aeronautical weather chart ! - Copyright ORBIFLY December 2007 - Disclaimer

ORBIFLY MET'MAP TEAM :

Programming & Development : Alexandra Zaïnal
Concept & Development : Baudouin d'Aumeries
Co-Development & Prog : Marc-Olivier Méhu
Technical & hardware support : Manuel Goepfert

Contact : metmap@orbifly.com




SOURCES & CREDITS :

   NOAA       Earth
Advisory